Time;durP1;ratioP1;P1;durP2;ratioP2;P2;SDS_P1;SDS_P2;PMS_P1;PMS_P2;Temp;Humidity;BMP_temperature;BMP_pressure;BME280_temperature;BME280_humidity;BME280_pressure;Samples;Min_cycle;Max_cycle;Signal;HPM_P1;HPM_P2
2022/06/07 00:01:39;;;;;;;3.35;2.33;;;;;;;19.07;57.12;99078.28;5223004;28;20563;-70
2022/06/07 00:04:29;;;;;;;3.28;2.00;;;;;;;19.10;57.35;99078.72;5222378;28;20052;-70
2022/06/07 00:07:20;;;;;;;2.67;2.20;;;;;;;19.10;57.36;99086.78;5220270;28;20130;-71
2022/06/07 00:10:11;;;;;;;4.13;2.10;;;;;;;18.97;57.50;99078.63;5202549;28;20049;-71
2022/06/07 00:13:01;;;;;;;4.50;2.22;;;;;;;19.01;57.24;99053.88;5218908;28;20069;-70
2022/06/07 00:15:51;;;;;;;3.45;2.38;;;;;;;19.07;56.74;99071.06;5218570;28;20055;-68
2022/06/07 00:18:42;;;;;;;4.25;2.17;;;;;;;19.27;56.40;99087.34;5208860;28;20063;-69
2022/06/07 00:21:32;;;;;;;4.47;2.40;;;;;;;19.12;56.87;99090.13;5218300;28;20052;-68
2022/06/07 00:24:22;;;;;;;5.55;2.60;;;;;;;18.83;57.42;99050.84;5221819;28;20088;-69
2022/06/07 00:27:13;;;;;;;2.58;2.30;;;;;;;18.96;57.53;99095.78;5221976;28;20639;-69
2022/06/07 00:30:06;;;;;;;4.97;2.50;;;;;;;19.10;57.91;99084.09;5205117;28;20056;-69
2022/06/07 00:32:57;;;;;;;4.40;2.42;;;;;;;18.70;58.48;99083.78;5223463;28;20056;-69
2022/06/07 00:35:48;;;;;;;7.38;2.85;;;;;;;18.77;57.83;99065.91;5223406;28;20048;-69
2022/06/07 00:38:38;;;;;;;9.27;2.42;;;;;;;18.85;57.51;99078.38;5222202;28;20442;-69
2022/06/07 00:41:29;;;;;;;2.92;2.00;;;;;;;19.01;57.24;99085.31;5206134;28;20053;-68
2022/06/07 00:44:19;;;;;;;3.60;2.10;;;;;;;19.14;57.18;99089.91;5221024;28;20134;-69
2022/06/07 00:47:13;;;;;;;4.97;2.15;;;;;;;19.16;56.42;99085.19;5203704;28;20383;-68
2022/06/07 00:50:10;;;;;;;2.38;1.85;;;;;;;19.04;56.71;99084.91;5195035;28;20136;-71
2022/06/07 00:53:00;;;;;;;6.47;2.22;;;;;;;19.00;57.41;99086.31;5225516;28;20056;-71
2022/06/07 00:55:51;;;;;;;3.78;2.30;;;;;;;18.98;57.87;99097.25;5214453;28;20084;-70
2022/06/07 00:58:41;;;;;;;4.32;2.10;;;;;;;18.72;59.68;99091.69;5223170;28;20056;-70
2022/06/07 01:01:32;;;;;;;9.07;2.45;;;;;;;18.77;59.76;99084.72;5213477;28;20056;-71
2022/06/07 01:04:23;;;;;;;4.65;2.10;;;;;;;18.42;60.03;99077.56;5200335;28;20045;-71
2022/06/07 01:10:44;;;;;;;4.35;1.80;;;;;;;18.80;59.53;99079.97;5227608;28;20286;-70
2022/06/07 01:13:40;;;;;;;2.20;2.00;;;;;;;18.72;60.49;99079.09;5208752;28;20063;-70
2022/06/07 01:16:36;;;;;;;9.40;2.90;;;;;;;18.70;60.31;99093.69;5213699;28;20045;-70
2022/06/07 01:19:27;;;;;;;3.85;2.47;;;;;;;18.76;60.95;99085.72;5212699;28;20515;-70
2022/06/07 01:22:18;;;;;;;5.47;2.28;;;;;;;18.61;60.32;99081.41;5209722;28;20057;-71
2022/06/07 01:25:09;;;;;;;11.07;2.50;;;;;;;18.27;61.03;99075.75;5199205;28;20052;-71
2022/06/07 01:28:00;;;;;;;5.00;2.47;;;;;;;18.41;60.90;99075.88;5213427;28;20064;-70
2022/06/07 01:30:50;;;;;;;6.38;3.05;;;;;;;18.41;61.10;99068.66;5212759;28;20454;-71
2022/06/07 01:33:41;;;;;;;2.83;2.13;;;;;;;18.13;62.46;99086.53;5207367;28;20052;-71
2022/06/07 01:36:32;;;;;;;5.82;2.47;;;;;;;18.34;61.71;99078.50;5228379;28;20138;-71
2022/06/07 01:42:32;;;;;;;5.93;2.15;;;;;;;18.44;61.72;99080.84;5218764;28;20502;-70
2022/06/07 01:45:22;;;;;;;8.18;2.33;;;;;;;18.29;61.94;99059.47;5210064;28;20424;-70
2022/06/07 01:48:13;;;;;;;5.47;2.97;;;;;;;18.37;62.14;99078.09;5211371;28;20194;-70
2022/06/07 01:51:06;;;;;;;4.57;2.30;;;;;;;18.42;62.97;99075.69;5224083;28;20116;-70
2022/06/07 01:53:56;;;;;;;6.90;2.38;;;;;;;18.27;62.84;99073.06;5226888;28;20055;-68
2022/06/07 01:56:48;;;;;;;5.63;2.13;;;;;;;18.26;63.28;99082.13;5226562;28;20438;-70
2022/06/07 01:59:39;;;;;;;4.72;1.90;;;;;;;18.12;63.35;99071.47;5215568;28;20051;-70
2022/06/07 02:02:35;;;;;;;7.10;2.10;;;;;;;18.05;62.00;99048.09;5202411;28;20233;-68
2022/06/07 02:05:26;;;;;;;2.53;1.50;;;;;;;18.01;62.71;99060.22;5185962;28;20619;-69
2022/06/07 02:08:20;;;;;;;3.42;1.80;;;;;;;18.10;62.69;99052.03;5202031;28;20092;-71
2022/06/07 02:11:17;;;;;;;3.38;1.42;;;;;;;18.24;62.11;99056.50;5224529;28;20575;-68
2022/06/07 02:14:13;;;;;;;2.50;1.25;;;;;;;18.11;63.28;99057.19;5215092;28;20495;-68
2022/06/07 02:17:04;;;;;;;4.50;1.50;;;;;;;18.10;63.80;99060.91;5219605;28;20052;-68
2022/06/07 02:20:04;;;;;;;3.72;1.60;;;;;;;18.19;63.15;99054.41;5207350;28;20055;-68
2022/06/07 02:22:55;;;;;;;3.35;1.55;;;;;;;18.13;62.92;99051.66;5195363;28;20665;-70
2022/06/07 02:25:49;;;;;;;2.65;1.40;;;;;;;18.00;62.56;99039.75;5205120;28;20056;-70
2022/06/07 02:28:42;;;;;;;;;;;;;;;17.99;63.35;99051.53;5210465;28;20049;-69
2022/06/07 02:31:36;;;;;;;2.13;1.40;;;;;;;17.92;62.67;99037.22;5191330;28;19925;-68
2022/06/07 02:34:28;;;;;;;3.42;1.38;;;;;;;18.01;62.98;99038.75;5210595;28;20049;-70
2022/06/07 02:37:21;;;;;;;1.90;1.30;;;;;;;17.93;63.47;99035.34;5211898;28;20045;-68
2022/06/07 02:40:11;;;;;;;2.30;1.38;;;;;;;17.84;62.54;99024.72;5225023;28;20060;-69
2022/06/07 02:43:03;;;;;;;3.97;1.42;;;;;;;17.83;62.52;99017.72;5221625;28;20156;-68
2022/06/07 02:45:53;;;;;;;3.05;1.35;;;;;;;17.91;62.24;99026.66;5222829;28;20057;-69
2022/06/07 02:48:43;;;;;;;2.55;1.45;;;;;;;17.90;61.59;99025.81;5211957;28;20048;-68
2022/06/07 02:51:34;;;;;;;4.70;1.40;;;;;;;17.81;62.90;99013.56;5211009;28;20048;-70
2022/06/07 02:54:28;;;;;;;2.15;1.33;;;;;;;17.78;62.36;99008.56;5203571;28;20049;-70
2022/06/07 02:57:19;;;;;;;1.77;1.00;;;;;;;17.81;62.36;99022.44;5198262;28;20658;-68
2022/06/07 03:00:13;;;;;;;2.65;1.40;;;;;;;17.83;62.56;99019.56;5206271;28;20751;-69
2022/06/07 03:03:04;;;;;;;1.58;1.05;;;;;;;17.86;62.79;99018.38;5208452;28;20044;-68
2022/06/07 03:05:59;;;;;;;1.88;1.27;;;;;;;17.79;63.26;99011.06;5208662;28;20049;-68
2022/06/07 03:08:50;;;;;;;8.43;1.38;;;;;;;17.84;62.47;99014.00;5207872;28;20118;-68
2022/06/07 03:11:40;;;;;;;4.10;1.20;;;;;;;17.85;61.97;99025.59;5203043;28;20664;-69
2022/06/07 03:14:32;;;;;;;1.40;1.23;;;;;;;17.74;63.00;99021.50;5191895;28;20124;-68
2022/06/07 03:17:24;;;;;;;4.68;1.70;;;;;;;17.84;63.59;99024.72;5206991;28;20076;-70
2022/06/07 03:20:15;;;;;;;2.95;1.23;;;;;;;17.84;61.60;99013.16;5207359;28;20415;-68
2022/06/07 03:23:07;;;;;;;1.40;1.27;;;;;;;17.93;62.75;99027.31;5207183;28;20041;-68
2022/06/07 03:26:07;;;;;;;1.77;1.25;;;;;;;17.80;63.34;99011.91;5220822;28;20048;-68
2022/06/07 03:29:03;;;;;;;3.20;1.40;;;;;;;17.76;63.03;99006.09;5207211;28;20056;-68
2022/06/07 03:31:53;;;;;;;2.55;1.20;;;;;;;17.83;62.37;99023.06;5208110;28;20124;-67
2022/06/07 03:34:48;;;;;;;2.35;1.30;;;;;;;17.72;63.30;99020.03;5217100;28;20190;-69
2022/06/07 03:37:40;;;;;;;3.40;1.40;;;;;;;17.79;62.68;99027.16;5207429;28;20053;-68
2022/06/07 03:40:43;;;;;;;2.20;1.35;;;;;;;17.94;63.01;99023.59;5209720;28;20514;-68
2022/06/07 03:43:37;;;;;;;3.70;1.10;;;;;;;17.76;62.95;99005.22;5213263;28;20051;-68
2022/06/07 03:46:29;;;;;;;2.75;1.20;;;;;;;17.84;62.56;99024.72;5205545;28;20105;-69
2022/06/07 03:49:20;;;;;;;5.30;1.42;;;;;;;17.89;61.74;99004.56;5212357;28;20138;-67
2022/06/07 03:52:15;;;;;;;7.57;1.70;;;;;;;17.99;61.06;99015.81;5219551;28;20079;-69
2022/06/07 03:55:07;;;;;;;1.40;1.30;;;;;;;18.18;59.42;99008.97;5203660;28;20111;-67
2022/06/07 03:58:18;;;;;;;3.17;1.92;;;;;;;18.03;60.75;99009.03;5226150;28;20057;-68
2022/06/07 04:01:15;;;;;;;2.95;1.50;;;;;;;17.89;61.29;99016.13;5206713;28;20057;-69
2022/06/07 04:04:09;;;;;;;2.55;1.40;;;;;;;17.84;62.15;99014.00;5199529;28;20076;-67
2022/06/07 04:10:16;;;;;;;2.65;1.40;;;;;;;17.60;64.63;99022.38;5214883;28;20045;-68
2022/06/07 04:13:11;;;;;;;3.05;1.65;;;;;;;17.74;64.29;99037.56;5202185;28;20075;-67
2022/06/07 04:16:16;;;;;;;2.15;1.20;;;;;;;17.75;64.19;99041.13;5209571;28;20609;-68
2022/06/07 04:19:12;;;;;;;2.10;1.40;;;;;;;17.61;63.45;99014.16;5206653;28;20218;-67
2022/06/07 04:22:04;;;;;;;5.20;1.20;;;;;;;17.69;62.20;99023.94;5207296;28;20138;-69
2022/06/07 04:25:01;;;;;;;1.95;1.58;;;;;;;17.78;62.31;99030.88;5205037;28;20091;-68
2022/06/07 04:27:54;;;;;;;3.08;1.30;;;;;;;17.86;63.68;99046.00;5217228;28;20051;-68
2022/06/07 04:30:49;;;;;;;5.90;1.95;;;;;;;17.88;64.05;99032.41;5191921;28;20175;-69
2022/06/07 04:33:44;;;;;;;2.15;1.58;;;;;;;17.88;64.37;99046.66;5203336;28;20092;-68
2022/06/07 04:36:39;;;;;;;2.88;1.58;;;;;;;17.79;64.79;99045.94;5200968;28;20049;-68
2022/06/07 04:39:31;;;;;;;3.78;1.80;;;;;;;17.83;64.90;99052.56;5208325;28;20677;-68
2022/06/07 04:42:26;;;;;;;3.45;1.90;;;;;;;17.76;64.50;99043.63;5212773;28;20052;-69
2022/06/07 04:45:28;;;;;;;3.85;1.75;;;;;;;17.88;65.12;99053.84;5202516;28;20044;-69
2022/06/07 04:48:28;;;;;;;6.47;1.70;;;;;;;17.68;65.88;99041.03;5206437;28;20183;-69
2022/06/07 04:51:33;;;;;;;6.65;1.55;;;;;;;17.77;66.12;99045.28;5192517;28;20518;-70
2022/06/07 04:54:36;;;;;;;2.42;1.60;;;;;;;17.93;66.44;99064.84;5206873;28;20056;-68
2022/06/07 04:57:30;;;;;;;4.75;2.03;;;;;;;17.92;66.61;99058.66;5207848;28;20127;-68
2022/06/07 05:00:20;;;;;;;5.80;1.67;;;;;;;17.88;65.31;99057.41;5205826;28;20439;-68
2022/06/07 05:03:21;;;;;;;1.92;1.60;;;;;;;17.87;65.46;99062.94;5189294;28;20116;-69
2022/06/07 05:06:22;;;;;;;2.20;1.80;;;;;;;17.98;65.55;99060.59;5200816;28;20260;-68
2022/06/07 05:09:22;;;;;;;4.50;1.85;;;;;;;18.11;65.84;99065.25;5203002;28;20049;-69
2022/06/07 05:12:17;;;;;;;2.38;1.60;;;;;;;18.01;66.15;99052.16;5193905;28;20137;-68
2022/06/07 05:15:11;;;;;;;3.22;1.80;;;;;;;18.13;65.48;99073.94;5212239;28;20052;-69
2022/06/07 05:18:09;;;;;;;1.60;1.50;;;;;;;17.97;65.98;99066.13;5193437;28;20060;-69
2022/06/07 05:21:09;;;;;;;4.63;1.83;;;;;;;18.11;63.93;99077.84;5204721;28;20518;-68
2022/06/07 05:23:59;;;;;;;3.03;1.65;;;;;;;18.08;63.88;99073.72;5206664;28;20088;-68
2022/06/07 05:26:54;;;;;;;4.35;1.73;;;;;;;18.15;64.46;99076.47;5220257;28;20175;-68
2022/06/07 05:29:55;;;;;;;3.58;2.15;;;;;;;18.33;65.09;99081.38;5208394;28;20143;-68
2022/06/07 05:33:02;;;;;;;4.20;1.70;;;;;;;18.42;63.03;99085.59;5219246;28;20076;-68
2022/06/07 05:35:58;;;;;;;5.13;2.53;;;;;;;18.24;62.75;99080.66;5211377;28;20642;-67
2022/06/07 05:38:50;;;;;;;5.15;1.95;;;;;;;18.54;62.81;99084.03;5209447;28;20428;-68
2022/06/07 05:41:43;;;;;;;5.55;2.13;;;;;;;18.66;62.76;99087.06;5209557;28;20138;-68
2022/06/07 05:44:40;;;;;;;6.28;2.53;;;;;;;18.73;63.75;99096.84;5208342;28;20099;-67
2022/06/07 05:47:31;;;;;;;4.95;2.30;;;;;;;18.91;62.60;99095.56;5210135;28;20427;-68
2022/06/07 05:50:21;;;;;;;5.60;2.08;;;;;;;18.90;61.70;99070.53;5224527;28;20431;-67
2022/06/07 05:53:17;;;;;;;2.65;2.00;;;;;;;19.14;61.41;99104.22;5216071;28;20827;-68
2022/06/07 05:56:10;;;;;;;4.68;1.83;;;;;;;19.30;61.11;99094.16;5214409;28;20060;-69
2022/06/07 05:59:05;;;;;;;4.50;2.03;;;;;;;19.38;60.87;99096.69;5211172;28;20190;-68
2022/06/07 06:01:55;;;;;;;2.80;1.85;;;;;;;19.38;60.55;99102.91;5211844;28;20641;-67
2022/06/07 06:04:50;;;;;;;3.28;1.77;;;;;;;19.65;59.78;99089.63;5199497;28;20092;-68
2022/06/07 06:11:10;;;;;;;4.18;1.80;;;;;;;19.65;58.81;99103.91;5202938;28;20210;-68
2022/06/07 06:14:04;;;;;;;6.07;2.00;;;;;;;19.82;59.68;99101.69;5222402;28;20059;-68
2022/06/07 06:16:55;;;;;;;7.60;1.92;;;;;;;19.95;59.12;99093.69;5207337;28;20503;-69
2022/06/07 06:19:54;;;;;;;8.52;1.52;;;;;;;20.04;56.28;99104.28;5209646;28;20076;-69
2022/06/07 06:22:46;;;;;;;6.25;1.70;;;;;;;20.03;56.52;99100.72;5204650;28;20139;-68
2022/06/07 06:25:41;;;;;;;5.18;1.75;;;;;;;20.14;57.75;99092.09;5194299;28;20556;-68
2022/06/07 06:28:32;;;;;;;2.88;1.50;;;;;;;20.29;57.00;99089.19;5209113;28;20630;-69
2022/06/07 06:31:24;;;;;;;3.95;1.15;;;;;;;20.35;55.74;99090.25;5209137;28;20056;-69
2022/06/07 06:34:15;;;;;;;5.25;1.10;;;;;;;20.39;56.60;99095.03;5215179;28;20040;-69
2022/06/07 06:37:06;;;;;;;1.38;1.10;;;;;;;20.28;56.83;99081.34;5219668;28;20052;-69
2022/06/07 06:39:59;;;;;;;3.10;1.20;;;;;;;20.23;55.63;99064.97;5204187;28;20128;-69
2022/06/07 06:42:49;;;;;;;1.92;0.80;;;;;;;20.28;54.88;99090.25;5210805;28;20045;-69
2022/06/07 06:46:11;;;;;;;3.53;0.95;;;;;;;20.02;55.04;99092.88;5193474;28;20072;-69
2022/06/07 06:49:06;;;;;;;5.05;1.10;;;;;;;19.84;53.63;99096.97;5210669;28;20511;-69
2022/06/07 06:51:59;;;;;;;1.20;0.77;;;;;;;19.82;54.05;99093.63;5219609;28;20045;-70
2022/06/07 06:54:54;;;;;;;3.08;0.82;;;;;;;19.90;54.16;99104.22;5216001;28;20052;-69
2022/06/07 06:57:48;;;;;;;6.10;1.00;;;;;;;20.19;53.32;99091.47;5205565;28;20467;-69
2022/06/07 07:00:39;;;;;;;2.25;0.80;;;;;;;20.13;53.60;99076.97;5202187;28;20057;-70
2022/06/07 07:03:30;;;;;;;1.55;0.73;;;;;;;20.39;53.60;99097.72;5201722;28;20068;-69
2022/06/07 07:06:23;;;;;;;2.67;1.02;;;;;;;21.07;53.98;99099.44;5203271;28;20068;-69
2022/06/07 07:09:18;;;;;;;4.70;1.00;;;;;;;20.67;53.11;99099.47;5205364;28;20574;-69
2022/06/07 07:12:12;;;;;;;4.28;1.00;;;;;;;21.75;53.09;99093.69;5206209;28;20134;-71
2022/06/07 07:15:13;;;;;;;2.45;1.02;;;;;;;22.88;49.60;99091.16;5209313;28;20049;-70
2022/06/07 07:18:13;;;;;;;1.27;0.90;;;;;;;22.91;47.87;99096.13;5208760;28;20059;-71
2022/06/07 07:21:14;;;;;;;2.72;1.20;;;;;;;22.78;47.87;99061.09;5207248;28;20601;-69
2022/06/07 07:24:09;;;;;;;5.20;1.17;;;;;;;23.03;48.03;99090.84;5209967;28;20056;-70
2022/06/07 07:27:02;;;;;;;1.30;0.90;;;;;;;22.21;49.61;99093.50;5198074;28;20056;-70
2022/06/07 07:29:53;;;;;;;4.55;1.00;;;;;;;22.43;49.51;99085.06;5206400;28;20059;-69
2022/06/07 07:32:48;;;;;;;5.95;1.20;;;;;;;22.79;50.08;99080.84;5211696;28;20099;-71
2022/06/07 07:35:38;;;;;;;2.15;0.98;;;;;;;22.75;48.25;99083.16;5222978;28;20514;-71
2022/06/07 07:38:32;;;;;;;2.47;1.13;;;;;;;22.85;48.58;99090.78;5192481;28;20130;-71
2022/06/07 07:41:26;;;;;;;4.28;1.00;;;;;;;22.32;48.66;99089.31;5201988;28;20107;-71
2022/06/07 07:44:19;;;;;;;3.13;1.00;;;;;;;23.06;47.71;99087.69;5203981;28;20061;-70
2022/06/07 07:47:12;;;;;;;4.32;0.98;;;;;;;22.88;48.32;99088.47;5205453;28;20064;-69
2022/06/07 07:50:07;;;;;;;6.50;1.23;;;;;;;22.82;48.32;99078.53;5201557;28;20447;-68
2022/06/07 07:52:59;;;;;;;5.13;1.08;;;;;;;21.98;50.04;99083.19;5203039;28;20422;-69
2022/06/07 07:55:52;;;;;;;6.50;1.00;;;;;;;23.39;47.61;99063.00;5200191;28;20570;-69
2022/06/07 07:58:44;;;;;;;4.90;1.00;;;;;;;24.61;45.19;99078.31;5215404;28;20056;-69
2022/06/07 08:01:36;;;;;;;6.30;1.20;;;;;;;24.65;45.08;99065.13;5202183;28;20049;-70
2022/06/07 08:04:27;;;;;;;3.38;0.82;;;;;;;24.92;45.34;99076.34;5200619;28;20174;-70
2022/06/07 08:07:18;;;;;;;2.45;0.98;;;;;;;24.27;44.34;99058.16;5209099;28;20056;-73
2022/06/07 08:10:09;;;;;;;4.88;1.10;;;;;;;21.82;48.38;99070.22;5205060;28;20059;-71
2022/06/07 08:13:00;;;;;;;2.47;0.85;;;;;;;21.86;50.08;99082.25;5216241;28;20056;-70
2022/06/07 08:15:51;;;;;;;5.60;1.00;;;;;;;22.39;49.29;99084.69;5217612;28;20104;-70
2022/06/07 08:18:43;;;;;;;6.47;1.00;;;;;;;;;;5217265;28;20515;-71
2022/06/07 08:21:34;;;;;;;3.10;1.05;;;;;;;23.45;47.57;99064.81;5216316;28;20049;-70
2022/06/07 08:24:25;;;;;;;4.00;0.90;;;;;;;23.58;45.06;99063.84;5221155;28;20082;-70
2022/06/07 08:27:15;;;;;;;8.50;1.00;;;;;;;23.87;45.42;99074.97;5216735;28;20053;-70
2022/06/07 08:30:06;;;;;;;2.10;0.88;;;;;;;24.92;46.22;99074.44;5224421;28;20055;-69
2022/06/07 08:32:58;;;;;;;2.40;0.88;;;;;;;25.79;43.14;99068.22;5214354;28;20052;-71
2022/06/07 08:38:59;;;;;;;2.67;0.82;;;;;;;24.95;42.32;99062.31;5216679;28;20048;-70
2022/06/07 08:42:01;;;;;;;2.13;0.90;;;;;;;24.35;43.28;99066.78;5214222;28;20056;-69
2022/06/07 08:44:56;;;;;;;2.55;0.60;;;;;;;23.89;43.19;99062.84;5212777;28;20052;-69
2022/06/07 08:47:58;;;;;;;2.95;0.88;;;;;;;23.60;44.46;99074.44;5215005;28;20048;-69
2022/06/07 08:50:59;;;;;;;4.13;0.90;;;;;;;25.05;42.73;99076.94;5202715;28;20418;-70
2022/06/07 08:53:53;;;;;;;3.85;0.77;;;;;;;25.17;42.70;99068.84;5214539;28;20484;-70
2022/06/07 08:56:44;;;;;;;;;;;;;;;25.57;40.99;99070.78;5209611;28;20430;-69
2022/06/07 08:59:34;;;;;;;3.08;0.80;;;;;;;26.52;41.10;99065.81;5215623;28;19932;-69
2022/06/07 09:02:44;;;;;;;2.50;0.70;;;;;;;25.85;40.64;99063.75;5212117;28;20491;-68
2022/06/07 09:05:35;;;;;;;4.32;0.88;;;;;;;25.43;40.16;99055.81;5200285;28;20053;-69
2022/06/07 09:08:34;;;;;;;3.30;0.50;;;;;;;25.17;39.21;99046.31;5201493;28;20045;-68
2022/06/07 09:15:10;;;;;;;3.95;0.75;;;;;;;25.56;41.27;99050.09;5219536;28;20150;-69
2022/06/07 09:18:04;;;;;;;1.98;0.57;;;;;;;25.95;40.37;99034.06;5218701;28;20531;-69
2022/06/07 09:21:00;;;;;;;3.28;0.70;;;;;;;26.03;40.48;99041.84;5202332;28;20554;-69
2022/06/07 09:23:51;;;;;;;2.78;0.80;;;;;;;25.65;40.85;99035.09;5214630;28;20056;-71
2022/06/07 09:26:41;;;;;;;5.05;1.00;;;;;;;25.71;42.40;99033.31;5220573;28;20052;-70
2022/06/07 09:29:35;;;;;;;4.65;0.77;;;;;;;26.29;39.50;99031.41;5214316;28;20042;-69
2022/06/07 09:32:31;;;;;;;2.90;0.65;;;;;;;27.56;39.70;99027.94;5215795;28;20045;-71
2022/06/07 09:35:36;;;;;;;2.58;0.75;;;;;;;28.51;35.72;99016.69;5207566;28;20067;-72
2022/06/07 09:38:41;;;;;;;1.42;0.60;;;;;;;26.49;38.15;99012.78;5218909;28;20521;-71
2022/06/07 09:41:43;;;;;;;0.97;0.67;;;;;;;26.98;38.64;99018.41;5203476;28;20460;-70
2022/06/07 09:45:11;;;;;;;2.30;0.70;;;;;;;27.08;37.25;99018.56;5220759;28;20202;-70
2022/06/07 09:48:30;;;;;;;2.67;0.68;;;;;;;27.01;37.85;99014.38;5208309;28;20052;-73
2022/06/07 09:51:37;;;;;;;2.95;0.47;;;;;;;26.98;37.92;98999.38;5188648;28;20056;-72
2022/06/07 09:54:27;;;;;;;2.03;0.68;;;;;;;26.76;35.86;99007.50;5196328;28;20660;-69
2022/06/07 09:57:38;;;;;;;2.10;0.60;;;;;;;26.89;39.12;99006.34;5192772;28;20175;-74
2022/06/07 10:00:58;;;;;;;2.80;0.70;;;;;;;27.10;37.28;99004.72;5209937;28;20053;-73
2022/06/07 10:04:26;;;;;;;2.42;0.60;;;;;;;27.15;36.71;99002.94;5213619;28;20079;-71
2022/06/07 10:07:27;;;;;;;4.30;0.85;;;;;;;25.43;38.28;99005.06;5216297;28;20045;-71
2022/06/07 10:10:48;;;;;;;2.75;0.63;;;;;;;24.10;41.40;99001.91;5217673;28;20704;-70
2022/06/07 10:13:52;;;;;;;4.47;1.00;;;;;;;23.89;41.46;98999.75;5205704;28;20171;-71
2022/06/07 10:17:00;;;;;;;1.48;0.57;;;;;;;23.40;43.00;98986.19;5220203;28;20051;-72
2022/06/07 10:20:01;;;;;;;1.10;0.70;;;;;;;24.95;41.29;98976.34;5203845;28;20044;-70
2022/06/07 10:23:13;;;;;;;4.38;0.80;;;;;;;25.08;42.91;98988.81;5213717;28;20109;-71
2022/06/07 10:26:22;;;;;;;3.08;0.70;;;;;;;26.02;40.96;98974.97;5199582;28;20057;-71
2022/06/07 10:29:45;;;;;;;3.22;0.73;;;;;;;26.01;40.07;98984.19;5216082;28;20637;-72
2022/06/07 10:32:44;;;;;;;3.80;0.60;;;;;;;26.10;42.00;98981.91;5215658;28;20526;-71
2022/06/07 10:35:57;;;;;;;4.07;0.90;;;;;;;26.62;39.70;98982.53;5202482;28;20060;-74
2022/06/07 10:39:01;;;;;;;3.50;0.73;;;;;;;27.29;37.33;98980.78;5224021;28;20588;-73
2022/06/07 10:42:24;;;;;;;3.13;1.00;;;;;;;26.45;38.16;98973.53;5211247;28;20067;-72
2022/06/07 10:45:22;;;;;;;2.58;0.82;;;;;;;26.67;37.52;98966.28;5218790;28;20091;-71
2022/06/07 10:48:24;;;;;;;1.55;0.70;;;;;;;26.62;35.44;98970.81;5219473;28;20955;-72
2022/06/07 10:54:47;;;;;;;3.80;0.88;;;;;;;26.42;38.00;98972.16;5219511;28;20056;-73
2022/06/07 10:58:04;;;;;;;1.90;0.80;;;;;;;26.48;40.12;98963.00;5217786;28;20466;-72
2022/06/07 11:01:03;;;;;;;5.20;1.00;;;;;;;26.84;37.50;98968.16;5216375;28;20415;-72
2022/06/07 11:11:00;;;;;;;1.98;0.70;;;;;;;24.21;42.08;98956.97;5220132;28;20178;-72
2022/06/07 11:14:24;;;;;;;1.38;0.93;;;;;;;24.34;41.76;98956.75;5203945;28;20186;-71
2022/06/07 11:17:41;;;;;;;3.60;0.90;;;;;;;23.88;42.96;98935.81;5218109;28;20572;-72
2022/06/07 11:20:34;;;;;;;2.35;0.70;;;;;;;24.18;42.47;98953.91;5219597;28;20562;-71
2022/06/07 11:23:31;;;;;;;1.33;0.70;;;;;;;23.61;42.33;98925.34;5214237;28;20110;-73
2022/06/07 11:26:22;;;;;;;0.70;0.70;;;;;;;24.23;42.95;98943.19;5209222;28;20071;-72
2022/06/07 11:29:22;;;;;;;3.45;0.70;;;;;;;24.59;40.59;98932.16;5219386;28;20060;-73
2022/06/07 11:32:49;;;;;;;1.52;0.70;;;;;;;23.82;42.74;98942.16;5215991;28;20053;-69
2022/06/07 11:35:53;;;;;;;2.70;1.00;;;;;;;24.14;43.26;98945.41;5218963;28;20053;-70
2022/06/07 11:38:58;;;;;;;2.75;0.98;;;;;;;24.20;42.67;98949.88;5216856;28;20518;-74
2022/06/07 11:41:54;;;;;;;4.47;1.00;;;;;;;24.18;42.22;98948.50;5201519;28;20053;-70
2022/06/07 11:44:45;;;;;;;1.48;0.70;;;;;;;23.71;42.24;98941.06;5218600;28;20041;-70
2022/06/07 11:48:01;;;;;;;1.83;0.95;;;;;;;22.26;45.71;98944.31;5214967;28;20139;-69
2022/06/07 11:50:55;;;;;;;0.73;0.68;;;;;;;23.20;44.00;98942.31;5216981;28;20060;-72
2022/06/07 11:54:01;;;;;;;6.70;1.08;;;;;;;23.77;44.66;98917.66;5214788;28;20053;-73
2022/06/07 11:56:56;;;;;;;2.13;0.80;;;;;;;23.89;43.21;98930.16;5217166;28;20568;-70
2022/06/07 11:59:49;;;;;;;6.88;0.80;;;;;;;23.81;42.39;98927.81;5218455;28;20053;-72
2022/06/07 12:02:40;;;;;;;3.80;0.90;;;;;;;24.34;44.92;98924.22;5218265;28;20692;-71
2022/06/07 12:05:45;;;;;;;3.03;1.10;;;;;;;25.30;43.87;98923.94;5203118;28;20729;-72
2022/06/07 12:08:51;;;;;;;2.20;0.80;;;;;;;25.32;40.94;98908.22;5204227;28;20053;-71
2022/06/07 12:11:43;;;;;;;1.45;0.85;;;;;;;25.17;41.95;98910.66;5218449;28;20649;-72
2022/06/07 12:14:43;;;;;;;4.55;1.15;;;;;;;24.90;41.34;98904.88;5219216;28;20056;-73
2022/06/07 12:17:33;;;;;;;2.83;1.00;;;;;;;24.87;42.80;98908.91;5216272;28;20463;-73
2022/06/07 12:20:35;;;;;;;1.75;0.70;;;;;;;24.59;44.23;98907.75;5216538;28;20573;-73
2022/06/07 12:23:30;;;;;;;3.17;1.02;;;;;;;24.22;43.22;98899.00;5214939;28;20055;-71
2022/06/07 12:26:33;;;;;;;4.68;1.15;;;;;;;24.47;43.54;98895.25;5213014;28;20106;-71
2022/06/07 12:29:29;;;;;;;1.73;0.60;;;;;;;25.03;44.07;98907.31;5218180;28;20187;-75
2022/06/07 12:32:25;;;;;;;1.30;0.90;;;;;;;24.89;41.14;98897.81;5218644;28;20044;-73
2022/06/07 12:35:23;;;;;;;1.63;0.90;;;;;;;24.94;42.37;98896.03;5218062;28;20049;-72
2022/06/07 12:38:14;;;;;;;1.42;0.70;;;;;;;24.33;42.44;98883.81;5201009;28;20070;-76
2022/06/07 12:41:12;;;;;;;1.00;0.90;;;;;;;24.39;43.58;98896.41;5215811;28;20083;-73
2022/06/07 12:44:03;;;;;;;1.95;0.80;;;;;;;24.82;42.35;98893.34;5215130;28;20041;-74
2022/06/07 12:46:55;;;;;;;7.80;1.25;;;;;;;24.57;43.63;98892.81;5218909;28;20049;-73
2022/06/07 12:49:46;;;;;;;5.07;0.82;;;;;;;24.83;43.53;98891.44;5214824;28;20132;-71
2022/06/07 12:52:36;;;;;;;3.25;0.98;;;;;;;25.19;41.17;98875.94;5215887;28;20515;-72
2022/06/07 12:55:33;;;;;;;2.20;0.70;;;;;;;25.31;43.21;98882.97;5196704;28;20103;-72
2022/06/07 12:58:30;;;;;;;3.15;0.82;;;;;;;25.46;42.80;98885.16;5215209;28;20558;-71
2022/06/07 13:01:28;;;;;;;3.13;1.23;;;;;;;25.53;41.99;98876.88;5195403;28;20549;-71
2022/06/07 13:04:35;;;;;;;1.58;1.00;;;;;;;25.19;41.51;98876.75;5213770;28;20052;-72
2022/06/07 13:07:28;;;;;;;1.83;1.10;;;;;;;25.29;43.54;98876.13;5204031;28;20060;-72
2022/06/07 13:10:36;;;;;;;1.77;0.90;;;;;;;25.62;41.46;98872.66;5213488;28;20447;-73
2022/06/07 13:13:31;;;;;;;9.38;1.30;;;;;;;25.73;40.46;98866.34;5218844;28;20112;-70
2022/06/07 13:16:38;;;;;;;1.83;0.90;;;;;;;25.35;43.18;98858.06;5214023;28;20526;-72
2022/06/07 13:19:29;;;;;;;1.00;0.80;;;;;;;25.43;42.74;98866.66;5216045;28;20044;-71
2022/06/07 13:22:21;;;;;;;1.80;1.00;;;;;;;25.67;42.18;98861.91;5216431;28;20054;-71
2022/06/07 13:25:23;;;;;;;2.95;1.00;;;;;;;25.67;43.44;98861.91;5215470;28;20791;-72
2022/06/07 13:28:19;;;;;;;2.40;0.90;;;;;;;25.75;41.49;98858.78;5215709;28;20716;-74
2022/06/07 13:31:53;;;;;;;1.08;0.80;;;;;;;25.63;42.77;98847.19;5192853;28;20094;-72
2022/06/07 13:34:52;;;;;;;1.42;1.02;;;;;;;25.46;43.26;98846.31;5114690;28;20125;-72
2022/06/07 13:37:58;;;;;;;4.70;1.15;;;;;;;25.43;41.73;98844.06;5215729;28;20091;-73
2022/06/07 13:41:05;;;;;;;2.22;0.85;;;;;;;25.30;41.73;98834.38;5214635;28;20125;-70
2022/06/07 13:44:01;;;;;;;4.20;1.23;;;;;;;25.36;40.11;98835.28;5213545;28;20049;-71
2022/06/07 13:46:59;;;;;;;4.05;0.80;;;;;;;25.04;42.55;98850.13;5217483;28;20103;-71
2022/06/07 13:53:24;;;;;;;1.02;0.80;;;;;;;24.98;43.35;98837.53;5217733;28;20419;-73
2022/06/07 13:56:17;;;;;;;1.73;0.80;;;;;;;24.66;45.05;98850.69;5218598;28;20061;-71
2022/06/07 13:59:10;;;;;;;1.52;0.70;;;;;;;24.58;44.83;98843.75;5219234;28;20060;-72
2022/06/07 14:02:00;;;;;;;0.85;0.73;;;;;;;24.69;44.66;98843.97;5214706;28;20066;-73
2022/06/07 14:04:50;;;;;;;1.50;1.13;;;;;;;25.06;43.00;98839.84;5215353;28;20041;-72
2022/06/07 14:07:40;;;;;;;0.77;0.73;;;;;;;25.38;41.81;98830.44;5215385;28;20049;-71
2022/06/07 14:10:30;;;;;;;4.82;1.00;;;;;;;25.43;41.17;98834.06;5217262;28;20053;-73
2022/06/07 14:13:27;;;;;;;4.20;0.90;;;;;;;25.27;42.08;98827.53;5211479;28;20171;-70
2022/06/07 14:16:32;;;;;;;1.80;0.80;;;;;;;25.34;42.81;98824.69;5213749;28;20135;-71
2022/06/07 14:19:25;;;;;;;0.93;0.70;;;;;;;25.48;43.23;98830.63;5215704;28;20107;-71
2022/06/07 14:22:19;;;;;;;3.10;1.10;;;;;;;25.57;41.39;98820.19;5220256;28;20080;-72
2022/06/07 14:25:15;;;;;;;2.92;0.90;;;;;;;25.38;41.83;98787.81;5194782;28;20079;-71